Time;durP1;ratioP1;P1;durP2;ratioP2;P2;SDS_P1;SDS_P2;PMS_P1;PMS_P2;Temp;Humidity;BMP_temperature;BMP_pressure;BME280_temperature;BME280_humidity;BME280_pressure;Samples;Min_cycle;Max_cycle;Signal;HPM_P1;HPM_P2
2022/11/20 00:00:55;;;;;;;1.30;0.93;;;;;;;;;;6122237;23;20030;-75
2022/11/20 00:03:25;;;;;;;0.38;0.38;;;;;;;;;;6124295;23;20021;-76
2022/11/20 00:05:53;;;;;;;2.28;0.70;;;;;;;;;;6124280;23;20026;-76
2022/11/20 00:08:21;;;;;;;0.20;0.20;;;;;;;;;;6124324;23;20092;-76
2022/11/20 00:10:50;;;;;;;0.68;0.50;;;;;;;;;;6123364;23;20029;-76
2022/11/20 00:13:18;;;;;;;0.90;0.90;;;;;;;;;;6123623;23;20072;-73
2022/11/20 00:15:46;;;;;;;1.00;0.52;;;;;;;;;;6122944;23;20022;-76
2022/11/20 00:18:15;;;;;;;0.30;0.30;;;;;;;;;;6124540;23;20029;-76
2022/11/20 00:20:45;;;;;;;0.95;0.63;;;;;;;;;;6122913;23;20025;-75
2022/11/20 00:23:13;;;;;;;0.45;0.35;;;;;;;;;;6123430;23;20416;-75
2022/11/20 00:25:41;;;;;;;1.00;0.82;;;;;;;;;;6123928;23;20467;-73
2022/11/20 00:28:09;;;;;;;0.55;0.28;;;;;;;;;;6122651;23;20022;-76
2022/11/20 00:30:38;;;;;;;1.35;0.68;;;;;;;;;;6123459;23;20049;-75
2022/11/20 00:33:06;;;;;;;0.50;0.40;;;;;;;;;;6124038;23;20072;-75
2022/11/20 00:35:34;;;;;;;0.75;0.40;;;;;;;;;;6124083;23;20022;-74
2022/11/20 00:38:04;;;;;;;0.38;0.38;;;;;;;;;;6123960;23;20077;-75
2022/11/20 00:40:32;;;;;;;0.47;0.28;;;;;;;;;;6122850;23;20033;-76
2022/11/20 00:43:01;;;;;;;0.60;0.60;;;;;;;;;;6123495;23;20022;-75
2022/11/20 00:45:29;;;;;;;1.00;0.40;;;;;;;;;;6123692;23;20045;-76
2022/11/20 00:47:57;;;;;;;0.38;0.38;;;;;;;;;;6124027;23;20664;-75
2022/11/20 00:50:26;;;;;;;0.65;0.40;;;;;;;;;;6122040;23;20029;-75
2022/11/20 00:52:54;;;;;;;0.70;0.63;;;;;;;;;;6124342;23;20022;-75
2022/11/20 00:55:24;;;;;;;0.40;0.40;;;;;;;;;;6123603;23;20076;-76
2022/11/20 00:57:52;;;;;;;0.50;0.50;;;;;;;;;;6123562;23;20097;-75
2022/11/20 01:00:20;;;;;;;0.45;0.30;;;;;;;;;;6122035;23;20030;-75
2022/11/20 01:02:49;;;;;;;0.55;0.45;;;;;;;;;;6122265;23;20624;-76
2022/11/20 01:05:17;;;;;;;0.50;0.22;;;;;;;;;;6123333;23;20356;-76
2022/11/20 01:07:45;;;;;;;1.05;0.70;;;;;;;;;;6123261;23;20026;-76
2022/11/20 01:10:13;;;;;;;0.38;0.30;;;;;;;;;;6123074;23;20018;-75
2022/11/20 01:12:43;;;;;;;0.30;0.30;;;;;;;;;;6123745;23;20022;-75
2022/11/20 01:15:11;;;;;;;1.00;0.47;;;;;;;;;;6123949;23;20022;-75
2022/11/20 01:17:40;;;;;;;0.20;0.20;;;;;;;;;;6124361;23;20022;-76
2022/11/20 01:20:09;;;;;;;0.60;0.60;;;;;;;;;;6122395;23;20022;-75
2022/11/20 01:22:37;;;;;;;0.15;0.15;;;;;;;;;;6123349;23;20104;-75
2022/11/20 01:25:06;;;;;;;0.30;0.30;;;;;;;;;;6123781;23;20136;-76
2022/11/20 01:27:34;;;;;;;1.95;1.05;;;;;;;;;;6122217;23;20040;-76
2022/11/20 01:30:04;;;;;;;0.70;0.70;;;;;;;;;;6124751;23;20018;-76
2022/11/20 01:32:32;;;;;;;0.60;0.30;;;;;;;;;;6126376;23;20026;-76
2022/11/20 01:35:00;;;;;;;1.60;0.50;;;;;;;;;;6126147;23;20022;-75
2022/11/20 01:37:28;;;;;;;0.60;0.60;;;;;;;;;;6125596;23;20029;-75
2022/11/20 01:39:57;;;;;;;1.42;0.60;;;;;;;;;;6123750;23;20022;-75
2022/11/20 01:45:35;;;;;;;1.48;0.75;;;;;;;;;;6095776;23;20343;-76
2022/11/20 01:48:05;;;;;;;0.25;0.20;;;;;;;;;;6126576;23;20352;-76
2022/11/20 01:50:33;;;;;;;0.22;0.22;;;;;;;;;;6124196;23;20037;-75
2022/11/20 01:53:03;;;;;;;0.25;0.25;;;;;;;;;;6125688;23;20018;-75
2022/11/20 01:55:33;;;;;;;1.25;0.75;;;;;;;;;;6125162;23;20018;-75
2022/11/20 01:58:02;;;;;;;0.40;0.40;;;;;;;;;;6125633;23;20494;-75
2022/11/20 02:00:31;;;;;;;1.23;0.40;;;;;;;;;;6123438;23;20061;-76
2022/11/20 02:03:00;;;;;;;0.55;0.52;;;;;;;;;;6125977;23;20018;-75
2022/11/20 02:05:33;;;;;;;0.20;0.20;;;;;;;;;;6124884;23;20108;-76
2022/11/20 02:08:03;;;;;;;1.30;0.63;;;;;;;;;;6125887;23;20033;-75
2022/11/20 02:10:31;;;;;;;0.38;0.38;;;;;;;;;;6124289;23;20030;-75
2022/11/20 02:15:57;;;;;;;0.30;0.30;;;;;;;;;;6006268;23;20039;-75
2022/11/20 02:18:25;;;;;;;0.98;0.68;;;;;;;;;;6097730;23;20018;-75
2022/11/20 02:21:00;;;;;;;0.50;0.45;;;;;;;;;;6123726;23;20025;-76
2022/11/20 02:23:31;;;;;;;1.05;0.80;;;;;;;;;;6125430;23;20478;-76
2022/11/20 02:26:01;;;;;;;1.38;0.93;;;;;;;;;;6125300;23;20025;-75
2022/11/20 02:28:29;;;;;;;0.93;0.57;;;;;;;;;;6124223;23;20397;-76
2022/11/20 02:30:58;;;;;;;0.52;0.43;;;;;;;;;;6123457;23;20468;-76
2022/11/20 02:33:26;;;;;;;0.57;0.40;;;;;;;;;;6124958;23;20074;-75
2022/11/20 02:35:54;;;;;;;0.28;0.20;;;;;;;;;;6124108;23;20093;-76
2022/11/20 02:38:23;;;;;;;5.68;0.90;;;;;;;;;;6125357;23;20018;-75
2022/11/20 02:40:51;;;;;;;0.60;0.30;;;;;;;;;;6122186;23;20036;-76
2022/11/20 02:43:24;;;;;;;1.30;0.95;;;;;;;;;;6124792;23;20078;-75
2022/11/20 02:45:52;;;;;;;1.30;1.15;;;;;;;;;;6124756;23;20022;-76
2022/11/20 02:48:21;;;;;;;0.32;0.32;;;;;;;;;;6125456;23;20018;-74
2022/11/20 02:50:52;;;;;;;3.85;0.50;;;;;;;;;;6124839;23;20049;-76
2022/11/20 02:53:20;;;;;;;0.93;0.90;;;;;;;;;;6124549;23;20029;-73
2022/11/20 02:55:49;;;;;;;1.65;0.52;;;;;;;;;;6124699;23;20340;-75
2022/11/20 02:58:17;;;;;;;0.77;0.38;;;;;;;;;;6124768;23;20030;-75
2022/11/20 03:00:46;;;;;;;2.53;0.98;;;;;;;;;;6123684;23;20026;-76
2022/11/20 03:03:15;;;;;;;0.40;0.40;;;;;;;;;;6124288;23;20101;-76
2022/11/20 03:05:43;;;;;;;1.17;0.60;;;;;;;;;;6125225;23;20454;-75
2022/11/20 03:08:11;;;;;;;0.57;0.50;;;;;;;;;;6125007;23;20219;-75
2022/11/20 03:10:40;;;;;;;0.30;0.30;;;;;;;;;;6123464;23;20074;-75
2022/11/20 03:13:08;;;;;;;0.40;0.40;;;;;;;;;;6124635;23;20551;-76
2022/11/20 03:15:37;;;;;;;0.60;0.60;;;;;;;;;;6123654;23;20329;-73
2022/11/20 03:18:07;;;;;;;0.93;0.57;;;;;;;;;;6125296;23;20018;-76
2022/11/20 03:20:35;;;;;;;1.75;0.52;;;;;;;;;;6123136;23;20018;-75
2022/11/20 03:23:04;;;;;;;1.73;0.65;;;;;;;;;;6124934;23;20024;-75
2022/11/20 03:25:32;;;;;;;0.35;0.30;;;;;;;;;;6125364;23;20034;-75
2022/11/20 03:28:01;;;;;;;3.03;0.82;;;;;;;;;;6124574;23;20018;-74
2022/11/20 03:30:29;;;;;;;0.63;0.47;;;;;;;;;;6122750;23;20031;-74
2022/11/20 03:32:58;;;;;;;0.50;0.50;;;;;;;;;;6124369;23;20022;-75
2022/11/20 03:35:27;;;;;;;0.30;0.30;;;;;;;;;;6124907;23;20022;-75
2022/11/20 03:37:56;;;;;;;0.98;0.60;;;;;;;;;;6124688;23;20363;-76
2022/11/20 03:40:24;;;;;;;0.77;0.43;;;;;;;;;;6123409;23;20029;-76
2022/11/20 03:42:52;;;;;;;0.82;0.25;;;;;;;;;;6123334;23;20025;-75
2022/11/20 03:45:21;;;;;;;2.65;0.35;;;;;;;;;;6123907;23;20558;-76
2022/11/20 03:47:49;;;;;;;2.40;0.60;;;;;;;;;;6123822;23;20466;-75
2022/11/20 03:50:17;;;;;;;3.40;0.70;;;;;;;;;;6124074;23;20041;-73
2022/11/20 03:52:47;;;;;;;0.22;0.20;;;;;;;;;;6124484;23;20474;-76
2022/11/20 03:55:16;;;;;;;1.20;0.30;;;;;;;;;;6123176;23;20022;-76
2022/11/20 03:57:44;;;;;;;2.45;1.50;;;;;;;;;;6124243;23;20078;-75
2022/11/20 04:00:13;;;;;;;2.70;1.08;;;;;;;;;;6124697;23;20030;-76
2022/11/20 04:02:41;;;;;;;0.50;0.30;;;;;;;;;;6123808;23;20033;-76
2022/11/20 04:05:09;;;;;;;0.75;0.40;;;;;;;;;;6124133;23;20347;-75
2022/11/20 04:07:38;;;;;;;0.73;0.60;;;;;;;;;;6124012;23;20051;-74
2022/11/20 04:10:08;;;;;;;0.68;0.55;;;;;;;;;;6123320;23;20022;-75
2022/11/20 04:12:36;;;;;;;1.00;0.30;;;;;;;;;;6122661;23;20042;-75
2022/11/20 04:15:05;;;;;;;0.63;0.63;;;;;;;;;;6124098;23;20025;-74
2022/11/20 04:17:33;;;;;;;1.15;0.82;;;;;;;;;;6123819;23;20085;-74
2022/11/20 04:20:02;;;;;;;0.60;0.60;;;;;;;;;;6122096;23;20108;-75
2022/11/20 04:22:30;;;;;;;0.35;0.35;;;;;;;;;;6123827;23;20049;-75
2022/11/20 04:24:58;;;;;;;0.40;0.40;;;;;;;;;;6124671;23;20022;-75
2022/11/20 04:27:28;;;;;;;0.60;0.57;;;;;;;;;;6124593;23;20048;-75
2022/11/20 04:29:56;;;;;;;0.60;0.60;;;;;;;;;;6122796;23;20041;-75
2022/11/20 04:32:24;;;;;;;0.90;0.30;;;;;;;;;;6123489;23;20018;-74
2022/11/20 04:34:53;;;;;;;4.65;0.75;;;;;;;;;;6121740;23;20045;-75
2022/11/20 04:37:21;;;;;;;0.75;0.50;;;;;;;;;;6123891;23;20022;-75
2022/11/20 04:39:49;;;;;;;1.00;0.47;;;;;;;;;;6123978;23;20434;-76
2022/11/20 04:42:30;;;;;;;0.68;0.63;;;;;;;;;;6124202;23;20030;-74
2022/11/20 04:45:00;;;;;;;1.05;0.45;;;;;;;;;;6123373;23;20543;-75
2022/11/20 04:47:28;;;;;;;1.08;0.63;;;;;;;;;;6122778;23;20021;-73
2022/11/20 04:49:56;;;;;;;0.98;0.50;;;;;;;;;;6122319;23;20049;-75
2022/11/20 04:52:25;;;;;;;0.85;0.75;;;;;;;;;;6124013;23;20034;-76
2022/11/20 04:54:53;;;;;;;1.27;0.55;;;;;;;;;;6123593;23;20100;-75
2022/11/20 04:57:22;;;;;;;0.30;0.30;;;;;;;;;;6123351;23;20070;-76
2022/11/20 04:59:50;;;;;;;0.80;0.60;;;;;;;;;;6122240;23;20029;-75
2022/11/20 05:02:20;;;;;;;0.57;0.57;;;;;;;;;;6122463;23;20333;-75
2022/11/20 05:04:48;;;;;;;0.22;0.22;;;;;;;;;;6122350;23;20025;-76
2022/11/20 05:07:16;;;;;;;0.70;0.45;;;;;;;;;;6124119;23;20022;-76
2022/11/20 05:09:45;;;;;;;0.93;0.60;;;;;;;;;;6121653;23;20054;-74
2022/11/20 05:12:13;;;;;;;0.32;0.32;;;;;;;;;;6123567;23;20041;-75
2022/11/20 05:14:41;;;;;;;0.40;0.40;;;;;;;;;;6123159;23;20058;-75
2022/11/20 05:17:11;;;;;;;0.30;0.30;;;;;;;;;;6122996;23;20024;-75
2022/11/20 05:19:41;;;;;;;0.60;0.60;;;;;;;;;;6122722;23;20026;-75
2022/11/20 05:22:09;;;;;;;1.20;0.85;;;;;;;;;;6122781;23;20456;-74
2022/11/20 05:24:37;;;;;;;2.15;0.63;;;;;;;;;;6121469;23;20096;-75
2022/11/20 05:27:05;;;;;;;0.30;0.30;;;;;;;;;;6122452;23;20054;-75
2022/11/20 05:29:34;;;;;;;0.20;0.20;;;;;;;;;;6123581;23;20033;-76
2022/11/20 05:32:02;;;;;;;0.57;0.57;;;;;;;;;;6121287;23;20022;-77
2022/11/20 05:34:30;;;;;;;0.32;0.25;;;;;;;;;;6122980;23;20028;-76
2022/11/20 05:37:00;;;;;;;1.50;0.88;;;;;;;;;;6122171;23;20101;-75
2022/11/20 05:39:28;;;;;;;0.63;0.63;;;;;;;;;;6122955;23;20022;-75
2022/11/20 05:44:39;;;;;;;3.25;0.77;;;;;;;;;;6121643;23;20372;-75
2022/11/20 05:47:07;;;;;;;0.45;0.45;;;;;;;;;;6123258;23;20037;-75
2022/11/20 05:49:35;;;;;;;0.80;0.80;;;;;;;;;;6122511;23;20026;-76
2022/11/20 05:52:05;;;;;;;0.40;0.40;;;;;;;;;;6122749;23;20026;-76
2022/11/20 05:54:34;;;;;;;1.33;0.98;;;;;;;;;;6123270;23;20097;-75
2022/11/20 05:57:02;;;;;;;0.60;0.60;;;;;;;;;;6123115;23;20030;-75
2022/11/20 05:59:30;;;;;;;1.25;0.50;;;;;;;;;;6122351;23;20025;-75
2022/11/20 06:01:58;;;;;;;0.68;0.57;;;;;;;;;;6122673;23;20022;-75
2022/11/20 06:04:27;;;;;;;0.68;0.60;;;;;;;;;;6122804;23;20021;-75
2022/11/20 06:06:55;;;;;;;0.20;0.20;;;;;;;;;;6122763;23;20029;-75
2022/11/20 06:09:25;;;;;;;0.30;0.30;;;;;;;;;;6121417;23;20065;-76
2022/11/20 06:11:54;;;;;;;0.43;0.43;;;;;;;;;;6122249;23;20022;-77
2022/11/20 06:14:22;;;;;;;2.38;1.05;;;;;;;;;;6122977;23;20550;-75
2022/11/20 06:16:50;;;;;;;1.63;0.73;;;;;;;;;;6124798;23;20029;-75
2022/11/20 06:19:18;;;;;;;0.47;0.47;;;;;;;;;;6123259;23;20029;-75
2022/11/20 06:21:49;;;;;;;0.52;0.35;;;;;;;;;;6123231;23;20022;-75
2022/11/20 06:24:18;;;;;;;0.75;0.60;;;;;;;;;;6123971;23;20464;-76
2022/11/20 06:26:47;;;;;;;0.65;0.47;;;;;;;;;;6124356;23;20042;-76
2022/11/20 06:29:16;;;;;;;0.75;0.50;;;;;;;;;;6124441;23;20029;-75
2022/11/20 06:31:44;;;;;;;0.40;0.40;;;;;;;;;;6125521;23;20038;-76
2022/11/20 06:34:12;;;;;;;0.38;0.38;;;;;;;;;;6123623;23;20025;-75
2022/11/20 06:36:40;;;;;;;0.80;0.50;;;;;;;;;;6124373;23;20018;-75
2022/11/20 06:39:09;;;;;;;0.60;0.60;;;;;;;;;;6121809;23;20034;-76
2022/11/20 06:41:37;;;;;;;1.23;0.82;;;;;;;;;;6123044;23;20030;-74
2022/11/20 06:44:07;;;;;;;0.32;0.32;;;;;;;;;;6117963;23;20028;-74
2022/11/20 06:46:35;;;;;;;1.42;0.50;;;;;;;;;;6119482;23;20720;-74
2022/11/20 06:49:04;;;;;;;0.68;0.65;;;;;;;;;;6119764;23;20029;-75
2022/11/20 06:51:32;;;;;;;0.43;0.40;;;;;;;;;;6120480;23;20630;-75
2022/11/20 06:54:01;;;;;;;1.25;0.80;;;;;;;;;;6119835;23;20045;-75
2022/11/20 06:56:29;;;;;;;1.00;0.52;;;;;;;;;;6118145;23;20543;-76
2022/11/20 06:58:58;;;;;;;1.30;0.32;;;;;;;;;;6118537;23;20404;-75
2022/11/20 07:01:27;;;;;;;3.25;0.55;;;;;;;;;;6118722;23;20042;-75
2022/11/20 07:03:56;;;;;;;0.65;0.65;;;;;;;;;;6119702;23;20057;-75
2022/11/20 07:06:24;;;;;;;3.55;0.70;;;;;;;;;;6119830;23;20037;-75
2022/11/20 07:08:53;;;;;;;0.32;0.32;;;;;;;;;;6117918;23;20030;-75
2022/11/20 07:11:21;;;;;;;0.20;0.20;;;;;;;;;;6119091;23;20022;-75
2022/11/20 07:13:50;;;;;;;0.50;0.50;;;;;;;;;;6118656;23;20025;-76
2022/11/20 07:16:18;;;;;;;2.00;0.85;;;;;;;;;;6120274;23;20022;-75
2022/11/20 07:18:48;;;;;;;1.00;0.55;;;;;;;;;;6120254;23;20052;-75
2022/11/20 07:21:18;;;;;;;0.68;0.52;;;;;;;;;;6118405;23;20022;-75
2022/11/20 07:23:47;;;;;;;0.30;0.30;;;;;;;;;;6118211;23;20033;-75
2022/11/20 07:26:15;;;;;;;0.40;0.40;;;;;;;;;;6118942;23;20029;-75
2022/11/20 07:28:45;;;;;;;0.30;0.30;;;;;;;;;;6120292;23;20045;-75
2022/11/20 07:31:14;;;;;;;0.30;0.30;;;;;;;;;;6119160;23;20018;-75
2022/11/20 07:33:48;;;;;;;0.40;0.40;;;;;;;;;;6118309;23;20026;-74
2022/11/20 07:36:16;;;;;;;0.50;0.50;;;;;;;;;;6120114;23;20018;-74
2022/11/20 07:38:45;;;;;;;0.40;0.30;;;;;;;;;;6119230;23;20037;-75
2022/11/20 07:41:13;;;;;;;0.60;0.60;;;;;;;;;;6090095;23;20459;-75
2022/11/20 07:43:41;;;;;;;0.30;0.30;;;;;;;;;;6090191;23;20054;-75
2022/11/20 07:46:10;;;;;;;0.17;0.17;;;;;;;;;;6089910;23;20026;-75
2022/11/20 07:48:38;;;;;;;3.78;0.98;;;;;;;;;;6088797;23;20026;-74
2022/11/20 07:51:08;;;;;;;0.45;0.43;;;;;;;;;;6089743;23;20057;-75
2022/11/20 07:53:36;;;;;;;0.22;0.22;;;;;;;;;;6059943;23;20358;-73
2022/11/20 07:56:05;;;;;;;0.52;0.40;;;;;;;;;;5971704;23;20275;-72
2022/11/20 07:58:34;;;;;;;0.30;0.30;;;;;;;;;;5972110;23;20326;-73
2022/11/20 08:01:06;;;;;;;2.05;0.90;;;;;;;;;;6029760;23;20027;-74
2022/11/20 08:03:37;;;;;;;1.27;0.57;;;;;;;;;;6078889;23;20050;-75
2022/11/20 08:06:05;;;;;;;0.60;0.50;;;;;;;;;;6088633;23;20435;-73
2022/11/20 08:08:35;;;;;;;12.23;0.52;;;;;;;;;;6078250;23;20026;-74
2022/11/20 08:14:15;;;;;;;0.43;0.30;;;;;;;;;;6090514;23;20359;-74
2022/11/20 08:16:44;;;;;;;0.93;0.60;;;;;;;;;;6090567;23;20389;-75
2022/11/20 08:19:12;;;;;;;0.20;0.17;;;;;;;;;;6086002;23;20027;-74
2022/11/20 08:21:40;;;;;;;0.20;0.20;;;;;;;;;;6089965;23;20028;-74
2022/11/20 08:24:11;;;;;;;0.25;0.25;;;;;;;;;;6090537;23;20022;-76
2022/11/20 08:26:40;;;;;;;0.30;0.30;;;;;;;;;;6089557;23;20023;-75
2022/11/20 08:29:08;;;;;;;0.30;0.25;;;;;;;;;;6088883;23;20615;-75
2022/11/20 08:31:37;;;;;;;0.30;0.25;;;;;;;;;;6089706;23;20026;-76
2022/11/20 08:34:05;;;;;;;1.08;0.57;;;;;;;;;;6087757;23;20042;-74
2022/11/20 08:36:37;;;;;;;0.40;0.38;;;;;;;;;;6089179;23;20420;-76
2022/11/20 08:39:05;;;;;;;0.68;0.43;;;;;;;;;;6088471;23;20036;-75
2022/11/20 08:41:36;;;;;;;0.75;0.47;;;;;;;;;;6118831;23;20333;-75
2022/11/20 08:44:06;;;;;;;0.50;0.35;;;;;;;;;;6119149;23;20462;-75
2022/11/20 08:46:36;;;;;;;0.35;0.35;;;;;;;;;;6106406;23;20026;-76
2022/11/20 08:49:05;;;;;;;1.05;0.55;;;;;;;;;;6117398;23;20030;-76
2022/11/20 08:51:34;;;;;;;0.50;0.50;;;;;;;;;;6117983;23;20022;-76
2022/11/20 08:54:02;;;;;;;0.30;0.30;;;;;;;;;;6115792;23;20029;-72
2022/11/20 08:56:31;;;;;;;0.90;0.30;;;;;;;;;;6116400;23;20064;-75
2022/11/20 08:59:01;;;;;;;1.55;0.40;;;;;;;;;;6114490;23;20061;-75
2022/11/20 09:01:50;;;;;;;0.22;0.22;;;;;;;;;;6117259;23;20022;-76
2022/11/20 09:04:18;;;;;;;1.17;0.63;;;;;;;;;;6118122;23;20077;-76
2022/11/20 09:06:50;;;;;;;2.05;1.05;;;;;;;;;;6118868;23;20040;-75
2022/11/20 09:09:19;;;;;;;0.47;0.47;;;;;;;;;;6118572;23;20045;-76
2022/11/20 09:11:49;;;;;;;3.22;0.57;;;;;;;;;;6121661;23;20081;-73
2022/11/20 09:14:19;;;;;;;0.75;0.63;;;;;;;;;;6119821;23;20072;-75
2022/11/20 09:16:47;;;;;;;0.47;0.40;;;;;;;;;;6121215;23;20029;-76
2022/11/20 09:19:16;;;;;;;0.20;0.20;;;;;;;;;;6119464;23;20048;-76
2022/11/20 09:22:04;;;;;;;0.73;0.40;;;;;;;;;;6121947;23;20049;-76
2022/11/20 09:24:33;;;;;;;0.82;0.40;;;;;;;;;;6121564;23;20025;-76
2022/11/20 09:27:03;;;;;;;0.82;0.40;;;;;;;;;;6122173;23;20029;-75
2022/11/20 09:29:33;;;;;;;0.52;0.47;;;;;;;;;;6109864;23;20033;-76
2022/11/20 09:32:01;;;;;;;0.20;0.20;;;;;;;;;;6122922;23;20026;-74
2022/11/20 09:34:29;;;;;;;0.85;0.68;;;;;;;;;;6121949;23;20049;-73
2022/11/20 09:36:58;;;;;;;0.43;0.43;;;;;;;;;;6121201;23;20352;-75
2022/11/20 09:39:34;;;;;;;2.08;0.50;;;;;;;;;;6120358;23;20097;-75
2022/11/20 09:42:11;;;;;;;1.45;0.85;;;;;;;;;;6120829;23;20127;-75
2022/11/20 09:44:51;;;;;;;8.85;1.02;;;;;;;;;;6122415;23;20030;-74
2022/11/20 09:47:23;;;;;;;0.38;0.20;;;;;;;;;;6121125;23;20022;-74
2022/11/20 09:50:00;;;;;;;0.55;0.20;;;;;;;;;;6123008;23;20101;-75
2022/11/20 09:52:34;;;;;;;2.55;0.65;;;;;;;;;;6123642;23;20121;-75
2022/11/20 09:55:03;;;;;;;0.63;0.57;;;;;;;;;;6122836;23;20053;-76
2022/11/20 09:57:35;;;;;;;0.43;0.30;;;;;;;;;;6124909;23;20253;-75
2022/11/20 10:00:06;;;;;;;1.40;0.40;;;;;;;;;;6121242;23;20026;-76
2022/11/20 10:02:38;;;;;;;0.43;0.43;;;;;;;;;;6124168;23;20024;-75
2022/11/20 10:05:10;;;;;;;0.47;0.40;;;;;;;;;;6123628;23;20022;-75
2022/11/20 10:07:40;;;;;;;0.38;0.38;;;;;;;;;;6124890;23;20029;-75
2022/11/20 10:10:16;;;;;;;0.45;0.17;;;;;;;;;;6121657;23;20101;-75
2022/11/20 10:12:51;;;;;;;0.10;0.10;;;;;;;;;;6125095;23;20033;-75
2022/11/20 10:15:29;;;;;;;1.30;0.40;;;;;;;;;;6124492;23;20018;-75
2022/11/20 10:18:05;;;;;;;0.10;0.10;;;;;;;;;;6124766;23;20029;-75
2022/11/20 10:20:39;;;;;;;0.50;0.50;;;;;;;;;;6121731;23;20081;-75
2022/11/20 10:23:21;;;;;;;1.63;0.47;;;;;;;;;;6122674;23;20482;-75
2022/11/20 10:25:53;;;;;;;;;;;;;;;;;;6124131;23;20096;-75
2022/11/20 10:28:26;;;;;;;0.60;0.38;;;;;;;;;;6124296;23;19945;-75
2022/11/20 10:30:58;;;;;;;0.20;0.15;;;;;;;;;;6122242;23;20467;-74
2022/11/20 10:33:28;;;;;;;0.47;0.47;;;;;;;;;;6121432;23;20026;-74
2022/11/20 10:36:19;;;;;;;0.43;0.43;;;;;;;;;;6123079;23;20530;-75
2022/11/20 10:38:50;;;;;;;0.40;0.40;;;;;;;;;;6121948;23;20022;-75
2022/11/20 10:41:27;;;;;;;0.45;0.40;;;;;;;;;;6122561;23;20029;-75
2022/11/20 10:44:03;;;;;;;0.30;0.20;;;;;;;;;;6122385;23;20026;-75
2022/11/20 10:46:37;;;;;;;0.10;0.10;;;;;;;;;;6124052;23;20026;-75
2022/11/20 10:49:07;;;;;;;0.90;0.90;;;;;;;;;;6122999;23;20018;-75
2022/11/20 10:51:39;;;;;;;0.20;0.20;;;;;;;;;;6123873;23;20550;-75
2022/11/20 10:54:14;;;;;;;1.35;0.20;;;;;;;;;;6123497;23;20072;-75
2022/11/20 10:56:43;;;;;;;1.27;0.45;;;;;;;;;;6121516;23;20026;-74
2022/11/20 10:59:28;;;;;;;0.38;0.38;;;;;;;;;;6122749;23;20018;-75
2022/11/20 11:01:57;;;;;;;0.30;0.30;;;;;;;;;;6121572;23;20022;-75
2022/11/20 11:04:34;;;;;;;0.55;0.25;;;;;;;;;;6119644;23;20025;-73
2022/11/20 11:07:08;;;;;;;0.20;0.20;;;;;;;;;;6124262;23;20026;-72
2022/11/20 11:09:38;;;;;;;0.20;0.20;;;;;;;;;;6124261;23;20026;-72
2022/11/20 11:12:08;;;;;;;0.28;0.28;;;;;;;;;;6123950;23;20029;-73
2022/11/20 11:14:47;;;;;;;0.10;0.10;;;;;;;;;;6124255;23;20022;-73
2022/11/20 11:17:26;;;;;;;0.30;0.30;;;;;;;;;;6124525;23;20026;-73
2022/11/20 11:20:01;;;;;;;0.88;0.28;;;;;;;;;;6121941;23;20090;-73
2022/11/20 11:22:31;;;;;;;0.55;0.38;;;;;;;;;;6124717;23;20474;-72
2022/11/20 11:24:59;;;;;;;0.85;0.73;;;;;;;;;;6124733;23;20082;-73
2022/11/20 11:27:28;;;;;;;0.20;0.20;;;;;;;;;;6124535;23;20107;-73
2022/11/20 11:30:05;;;;;;;0.15;0.15;;;;;;;;;;6123986;23;20022;-72
2022/11/20 11:32:35;;;;;;;0.65;0.20;;;;;;;;;;6125542;23;20022;-73
2022/11/20 11:35:04;;;;;;;0.20;0.20;;;;;;;;;;6122536;23;20029;-73
2022/11/20 11:37:35;;;;;;;0.17;0.15;;;;;;;;;;6124771;23;20113;-71
2022/11/20 11:40:05;;;;;;;0.65;0.38;;;;;;;;;;6123128;23;20048;-73
2022/11/20 11:42:56;;;;;;;0.68;0.25;;;;;;;;;;6124253;23;20104;-73
2022/11/20 11:45:24;;;;;;;0.10;0.10;;;;;;;;;;6123555;23;20343;-72
2022/11/20 11:47:54;;;;;;;0.88;0.32;;;;;;;;;;6122233;23;20026;-73
2022/11/20 11:50:23;;;;;;;0.35;0.30;;;;;;;;;;6123076;23;20045;-72
2022/11/20 11:52:55;;;;;;;0.57;0.50;;;;;;;;;;6124850;23;20428;-73
2022/11/20 11:55:29;;;;;;;0.57;0.35;;;;;;;;;;6124285;23;20022;-73
2022/11/20 11:58:01;;;;;;;0.20;0.20;;;;;;;;;;6122762;23;20026;-73
2022/11/20 12:00:29;;;;;;;0.30;0.30;;;;;;;;;;6122792;23;20025;-72
2022/11/20 12:03:05;;;;;;;0.28;0.28;;;;;;;;;;6124421;23;20022;-72
2022/11/20 12:05:38;;;;;;;0.30;0.30;;;;;;;;;;6123815;23;20032;-72
2022/11/20 12:08:08;;;;;;;0.17;0.15;;;;;;;;;;6123632;23;20044;-73
2022/11/20 12:10:42;;;;;;;0.93;0.30;;;;;;;;;;6123335;23;20057;-73
2022/11/20 12:13:16;;;;;;;0.28;0.22;;;;;;;;;;6123728;23;20022;-72
2022/11/20 12:15:46;;;;;;;0.20;0.20;;;;;;;;;;6123924;23;20029;-72
2022/11/20 12:18:18;;;;;;;0.35;0.35;;;;;;;;;;6124105;23;20029;-71
2022/11/20 12:20:49;;;;;;;0.45;0.45;;;;;;;;;;6122641;23;20041;-73
2022/11/20 12:23:21;;;;;;;0.43;0.40;;;;;;;;;;6124213;23;20030;-72
2022/11/20 12:25:53;;;;;;;0.35;0.35;;;;;;;;;;6123653;23;20021;-72
2022/11/20 12:28:28;;;;;;;0.20;0.20;;;;;;;;;;6122924;23;20105;-73
2022/11/20 12:31:04;;;;;;;0.20;0.20;;;;;;;;;;6122351;23;20100;-72
2022/11/20 12:33:44;;;;;;;0.30;0.30;;;;;;;;;;6123836;23;20025;-72
2022/11/20 12:36:18;;;;;;;0.30;0.30;;;;;;;;;;6123234;23;20052;-73
2022/11/20 12:39:01;;;;;;;0.10;0.10;;;;;;;;;;6124079;23;20018;-73
2022/11/20 12:47:25;;;;;;;0.50;0.50;;;;;;;;;;6122184;23;20025;-72
2022/11/20 12:49:59;;;;;;;0.20;0.20;;;;;;;;;;6122544;23;20025;-72
2022/11/20 12:52:39;;;;;;;0.55;0.40;;;;;;;;;;6124050;23;20032;-72
2022/11/20 12:55:25;;;;;;;1.48;0.60;;;;;;;;;;6122937;23;20568;-73
2022/11/20 12:57:56;;;;;;;0.22;0.20;;;;;;;;;;6123258;23;20030;-72
2022/11/20 13:00:25;;;;;;;0.52;0.30;;;;;;;;;;6122909;23;20028;-73
2022/11/20 13:03:07;;;;;;;0.20;0.20;;;;;;;;;;6124233;23;20077;-72
2022/11/20 13:05:42;;;;;;;0.47;0.30;;;;;;;;;;6123666;23;20033;-72
2022/11/20 13:08:15;;;;;;;0.20;0.20;;;;;;;;;;6123315;23;20018;-72
2022/11/20 13:10:47;;;;;;;0.88;0.30;;;;;;;;;;6123530;23;20033;-72
2022/11/20 13:13:19;;;;;;;0.32;0.28;;;;;;;;;;6124288;23;20021;-72
2022/11/20 13:15:51;;;;;;;0.15;0.15;;;;;;;;;;6123546;23;20100;-75
2022/11/20 13:18:20;;;;;;;0.10;0.10;;;;;;;;;;6124491;23;20105;-73
2022/11/20 13:20:50;;;;;;;0.50;0.47;;;;;;;;;;6122009;23;20073;-72
2022/11/20 13:23:26;;;;;;;0.35;0.35;;;;;;;;;;6123606;23;20021;-73
2022/11/20 13:26:07;;;;;;;3.97;1.13;;;;;;;;;;6122732;23;20474;-73
2022/11/20 13:28:36;;;;;;;0.45;0.32;;;;;;;;;;6122138;23;20022;-73
2022/11/20 13:31:04;;;;;;;0.40;0.40;;;;;;;;;;6123601;23;20049;-72
2022/11/20 13:33:34;;;;;;;11.45;0.65;;;;;;;;;;6123072;23;20096;-73
2022/11/20 13:36:05;;;;;;;0.17;0.17;;;;;;;;;;6123901;23;20025;-73
2022/11/20 13:38:42;;;;;;;0.20;0.20;;;;;;;;;;6123699;23;20033;-72
2022/11/20 13:43:53;;;;;;;1.23;0.30;;;;;;;;;;6121628;23;20022;-72
2022/11/20 13:46:24;;;;;;;0.52;0.45;;;;;;;;;;6122602;23;20021;-72
2022/11/20 13:48:54;;;;;;;0.22;0.20;;;;;;;;;;6122946;23;20022;-72
2022/11/20 13:51:34;;;;;;;0.28;0.28;;;;;;;;;;6123232;23;20046;-72
2022/11/20 13:54:23;;;;;;;0.22;0.22;;;;;;;;;;6124118;23;20024;-73
2022/11/20 13:56:58;;;;;;;0.40;0.40;;;;;;;;;;6117280;23;20526;-72
2022/11/20 13:59:32;;;;;;;0.40;0.40;;;;;;;;;;6123063;23;20026;-72
2022/11/20 14:02:01;;;;;;;1.35;0.93;;;;;;;;;;6123675;23;20028;-72
2022/11/20 14:04:31;;;;;;;0.95;0.38;;;;;;;;;;6120304;23;20030;-70
2022/11/20 14:07:01;;;;;;;0.30;0.30;;;;;;;;;;6120049;23;20100;-70
2022/11/20 14:09:31;;;;;;;1.35;0.75;;;;;;;;;;6119064;23;20021;-70
2022/11/20 14:11:59;;;;;;;1.65;0.60;;;;;;;;;;6119181;23;20498;-69
2022/11/20 14:14:28;;;;;;;0.25;0.25;;;;;;;;;;6118677;23;20455;-69
2022/11/20 14:17:06;;;;;;;0.47;0.47;;;;;;;;;;6121273;23;20025;-70
2022/11/20 14:19:36;;;;;;;0.57;0.20;;;;;;;;;;6118697;23;20030;-69
2022/11/20 14:22:11;;;;;;;0.45;0.45;;;;;;;;;;6117774;23;20431;-70
2022/11/20 14:24:40;;;;;;;0.70;0.40;;;;;;;;;;6120051;23;20025;-70
2022/11/20 14:27:13;;;;;;;0.30;0.30;;;;;;;;;;6122074;23;20026;-69
2022/11/20 14:29:42;;;;;;;0.45;0.45;;;;;;;;;;6117033;23;20021;-69
2022/11/20 14:32:11;;;;;;;0.50;0.30;;;;;;;;;;6120968;23;20026;-69
2022/11/20 14:34:41;;;;;;;0.20;0.20;;;;;;;;;;6123429;23;20021;-69
2022/11/20 14:37:14;;;;;;;0.40;0.40;;;;;;;;;;6121596;23;20373;-70
2022/11/20 14:39:44;;;;;;;;;;;;;;;;;;6122079;23;20053;-69
2022/11/20 14:42:16;;;;;;;0.20;0.20;;;;;;;;;;6123251;23;19917;-70
2022/11/20 14:44:45;;;;;;;0.47;0.47;;;;;;;;;;6123421;23;20045;-70
2022/11/20 14:47:15;;;;;;;0.30;0.30;;;;;;;;;;6122618;23;20022;-70
2022/11/20 14:49:43;;;;;;;1.08;0.73;;;;;;;;;;6120648;23;20467;-69
2022/11/20 14:52:15;;;;;;;0.10;0.10;;;;;;;;;;6121765;23;20029;-69
2022/11/20 14:54:47;;;;;;;0.20;0.20;;;;;;;;;;6124029;23;20506;-69
2022/11/20 14:57:24;;;;;;;0.20;0.20;;;;;;;;;;6122451;23;20026;-70
2022/11/20 14:59:53;;;;;;;0.30;0.30;;;;;;;;;;6122442;23;20033;-69
2022/11/20 15:02:22;;;;;;;0.75;0.25;;;;;;;;;;6123488;23;20101;-69
2022/11/20 15:04:51;;;;;;;1.17;0.52;;;;;;;;;;6121622;23;20030;-70
2022/11/20 15:07:28;;;;;;;0.35;0.30;;;;;;;;;;6121148;23;20412;-69
2022/11/20 15:10:04;;;;;;;0.10;0.10;;;;;;;;;;6121170;23;20036;-69
2022/11/20 15:12:33;;;;;;;0.30;0.30;;;;;;;;;;6121689;23;20022;-69
2022/11/20 15:15:03;;;;;;;0.25;0.25;;;;;;;;;;6123197;23;20025;-69
2022/11/20 15:17:32;;;;;;;0.40;0.30;;;;;;;;;;6120765;23;20018;-70
2022/11/20 15:20:01;;;;;;;0.10;0.10;;;;;;;;;;6122064;23;20105;-69
2022/11/20 15:22:31;;;;;;;0.60;0.40;;;;;;;;;;6121454;23;20026;-70